Tiempo atmosférico en la estación meteorológica de El Pedregal, Guadalajara (1185 m.)



Fecha
DESCASC
Temp. máxima en grados centígrados (hora)
DESCASC
Temp. mínima en grados centígrados (hora)
DESCASC
Temp. media en grados centígrados
DESCASC
Racha de viento máxima en m/sg (hora)
DESCASC
Velocidad máxima media en intervalos de 10 minutos(hora)
DESCASC
Precipitaciones diarias en mm
DESCASC
Precipitaciones de 00:00 a 06:00 en mm
DESCASC
Precipitaciones de 06:00 a 12:00 en mm
DESCASC
Precipitaciones de 12:00 a 18:00 en mm
DESCASC
Precipitaciones de 18:00 a 24:00 en mm
DESCASC
28-02-2021 10.9 (12:40) -0.1 (01:30) 5.4 12.22 (15:40) 7.5 (15:40) 0 0 0 0 0
27-02-2021 13.8 (14:40) -0.3 (04:30) 6.8 5.56 (12:10) 3.06 (15:00) 0.2 0 0.2 0 0
26-02-2021 15.1 (15:50) 0.7 (06:00) 7.9 7.78 (15:40) 5.56 (15:00) 0 0 0 0 0
25-02-2021 14.9 (15:20) -2.1 (-00:0) 6.4 10 (16:50) 6.94 (16:50) 0 0 0 0 0
24-02-2021 16 (15:10) 0.5 (00:00) 8.3 9.17 (12:30) 6.11 (13:20) 0.2 0 0.2 0 0
23-02-2021 13 (16:20) 0.7 (00:00) 6.8 7.5 (18:00) 5 (15:20) 0.2 0.2 0 0 0
22-02-2021 6.6 (00:00) 2 (00:00) 4.3 9.17 (04:40) 6.39 (05:30) 3.2 2.6 0 0.2 0.4
21-02-2021 10.5 (01:40) 4.7 (00:00) 7.6 13.89 (16:40) 8.61 (16:40) 0 0 0 0 0
20-02-2021 18.8 (14:50) 5.7 (00:00) 12.2 13.06 (14:30) 6.67 (15:30) 0 0 0 0 0
19-02-2021 16.1 (14:20) 1 (00:00) 8.6 12.5 (11:50) 6.67 (11:50) 0 0 0 0 0
18-02-2021 15.3 (14:10) 3.4 (00:00) 9.4 13.06 (15:10) 7.78 (15:10) 0 0 0 0 0
17-02-2021 16.4 (15:40) 0.8 (00:00) 8.6 13.61 (15:00) 7.78 (15:50) 0 0 0 0 0
16-02-2021 17.5 (14:00) -1.3 (-00:0) 8.1 12.5 (15:20) 8.33 (15:20) 0 0 0 0 0
15-02-2021 13.9 (15:50) -1.1 (-00:0) 6.4 6.67 (16:00) 4.72 (17:30) 0.2 0 0 0.2 0
14-02-2021 14.2 (15:40) -0.3 (00:00) 6.9 6.39 (16:50) 4.72 (16:50) 0.2 0 0.2 0 0
13-02-2021 11.1 (17:10) 2.1 (00:00) 6.6 8.89 (15:40) 5.83 (15:20) 0.2 0 0.2 0 0
12-02-2021 9.3 (00:00) 4.4 (00:00) 6.9 14.17 (15:30) 7.78 (15:10) 4.2 0 3.6 0.6 0
11-02-2021 12.3 (13:30) 3.5 (00:00) 7.9 12.22 (12:20) 7.78 (14:00) 0.2 0 0.2 0 0
10-02-2021 9 (15:40) 1.5 (00:00) 5.3 21.11 (06:30) 10.56 (06:30) 3.6 2.8 0.8 0 0
09-02-2021 9.2 (13:30) 2.2 (00:00) 5.7 20.28 (14:30) 10.83 (14:50) 6 0 0 4.6 1.4
08-02-2021 7.5 (14:00) 2 (00:00) 4.8 16.94 (13:10) 10.28 (13:20) 5 0 2.8 1.8 0.4
07-02-2021 7.2 (16:40) 0.6 (00:00) 3.9 13.06 (23:10) 8.33 (23:10) 0.6 0.6 0 0 0
06-02-2021 9.2 (12:00) 2.5 (00:00) 5.8 10 (00:50) 5.83 (00:30) 5.8 1.2 0.2 1.4 3
05-02-2021 16.4 (14:00) 2.5 (00:00) 9.4 13.33 (13:20) 7.5 (13:00) 0 0 0 0 0
04-02-2021 17.6 (15:30) 4 (00:00) 10.8 9.72 (15:40) 5.83 (15:40) 0 0 0 0 0
03-02-2021 13 (14:50) 3.2 (00:00) 8.1 10.56 (12:40) 6.11 (13:30) 0 0 0 0 0
02-02-2021 12 (16:00) 4.6 (00:00) 8.3 13.61 (12:50) 8.89 (12:30) 0 0 0 0 0
01-02-2021 12.3 (17:10) 4.9 (00:00) 8.6 14.72 (15:50) 9.17 (13:20) 0 0 0 0 0
31-01-2021 9.1 (15:10) 3.3 (00:00) 6.2 18.06 (15:00) 10.56 (16:30) 0.4 0.2 0.2 0 0

Gráficas

Temp. máximas Temp. mínimas Temp. medias Precipitaciones Rachas de viento máximas Velocidades máximas media en intervalos de 10 minutos

Datos horarios

Fecha y hora oficial Temperatura (ºC) Velocidad del viento (km/h) Dirección del viento Racha (km/h) Dirección de racha Precipitación (mm) Presión (hPa) Tendencia (hPa) Humedad (%)
2021-03-01 23:00:00 4.6 2 Sur 8 Sur 0 -- -- 87
2021-03-01 22:00:00 4.6 4 Sur 15 Este 0 -- -- 87
2021-03-01 21:00:00 4.3 10 Sudeste 26 Sudeste 0 -- -- 89
2021-03-01 20:00:00 4.8 17 Sudeste 24 Sudeste 0 -- -- 88
2021-03-01 19:00:00 5.6 6 Este 20 Sudeste 0 -- -- 87
2021-03-01 18:00:00 5.9 12 Sudeste 30 Sudeste 0 -- -- 87
2021-03-01 17:00:00 7.2 19 Sudeste 32 Sudeste 0 -- -- 80
2021-03-01 16:00:00 7.9 17 Sudeste 28 Sudeste 0 -- -- 73
2021-03-01 15:00:00 7.6 18 Sur 30 Sudeste 0 -- -- 74
2021-03-01 14:00:00 7.2 15 Sudeste 30 Sudeste 0 -- -- 73
2021-03-01 13:00:00 7 13 Sudeste 26 Sudeste 0 -- -- 75
2021-03-01 12:00:00 6.8 21 Sudeste 35 Este 0 -- -- 77
2021-03-01 11:00:00 5.8 22 Este 32 Sudeste 0 -- -- 82
2021-03-01 10:00:00 5.3 12 Este 22 Este 0 -- -- 83
2021-03-01 09:00:00 3.2 14 Este 18 Este 0 -- -- 89
2021-03-01 08:00:00 3.4 8 Este 21 Sudeste 0 -- -- 86
2021-03-01 07:00:00 3.6 10 Sudeste 20 Este 0 -- -- 83
2021-03-01 06:00:00 3.6 11 Este 19 Este 0 -- -- 81
2021-03-01 05:00:00 3.6 7 Sudeste 19 Sur 0 -- -- 79
2021-03-01 04:00:00 3.1 5 Sudeste 28 Sudeste 0 -- -- 80
2021-03-01 03:00:00 3.5 18 Sudeste 28 Sudeste 0 -- -- 81
2021-03-01 02:00:00 3.1 15 Sudeste 28 Sudeste 0 -- -- 82
2021-03-01 01:00:00 3 16 Sudeste 36 Sudeste 0 -- -- 83
2021-03-01 00:00:00 4.1 21 Sudeste 32 Sudeste 0 -- -- 78
2021-02-28 23:00:00 3.7 19 Este 29 Sudeste 0 -- -- 84
2021-02-28 22:00:00 4.1 15 Sudeste 34 Sudeste 0 -- -- 85
2021-02-28 21:00:00 4.8 21 Sudeste 31 Este 0 -- -- 88
2021-02-28 20:00:00 5.2 19 Sudeste 30 Sudeste 0 -- -- 87
2021-02-28 19:00:00 5.6 14 Sudeste 33 Sudeste 0 -- -- 84
2021-02-28 18:00:00 8.4 16 Sudeste 34 Sudeste 0 -- -- 72
2021-02-28 17:00:00 8.9 18 Sur 38 Sudeste 0 -- -- 60
2021-02-28 16:00:00 9.1 27 Sudeste 44 Sudeste 0 -- -- 64
2021-02-28 15:00:00 9.2 25 Sudeste 43 Sudeste 0 -- -- 64
2021-02-28 14:00:00 10.6 21 Sudeste 38 Sur 0 -- -- 55
2021-02-28 13:00:00 10.7 21 Sudeste 33 Sudeste 0 -- -- 54
2021-02-28 12:00:00 8.2 17 Sudeste 34 Sur 0 -- -- 59
2021-02-28 11:00:00 8 18 Sudeste 33 Sudeste 0 -- -- 60
2021-02-28 10:00:00 6.8 18 Sudeste 37 Sudeste 0 -- -- 65
2021-02-28 09:00:00 5.7 17 Sur 29 Sur 0 -- -- 70
2021-02-28 08:00:00 2.6 0 Calma 9 Este 0 -- -- 92
2021-02-28 07:00:00 2.2 4 Este 8 Este 0 -- -- 91
2021-02-28 06:00:00 1.4 0 Calma 5 Sudeste 0 -- -- 90
2021-02-28 05:00:00 2.5 3 Sudeste 10 Este 0 -- -- 87
2021-02-28 04:00:00 3 6 Sudeste 11 Este 0 -- -- 88
2021-02-28 03:00:00 2.3 6 Este 13 Este 0 -- -- 94
2021-02-28 02:00:00 0.1 0 Calma 2 Norte 0 -- -- 93
2021-02-28 01:00:00 0.7 0 Calma 2 Este 0 -- -- 94
2021-02-28 00:00:00 1 2 Este 8 Este 0 -- -- 94
2021-02-27 23:00:00 2.5 3 Sudeste 7 Este 0 -- -- 92
2021-02-27 22:00:00 2.4 2 Nordeste 3 Norte 0 -- -- 92
2021-02-27 21:00:00 3.6 0 Calma 4 Norte 0 -- -- 88
2021-02-27 20:00:00 4.6 0 Calma 7 Oeste 0 -- -- 88
2021-02-27 19:00:00 6.9 4 Oeste 12 Nordeste 0 -- -- 72
2021-02-27 18:00:00 12.4 5 Nordeste 12 Nordeste 0 -- -- 53
2021-02-27 17:00:00 12.7 8 Norte 13 Nordeste 0 -- -- 46
2021-02-27 16:00:00 13 6 Nordeste 15 Norte 0 -- -- 46
2021-02-27 15:00:00 12.3 11 Norte 17 Norte 0 -- -- 53
2021-02-27 14:00:00 12.3 6 Este 17 Este 0 -- -- 62
2021-02-27 13:00:00 9.6 9 Sudeste 20 Nordeste 0 -- -- 76
2021-02-27 12:00:00 6.4 7 Este 13 Este 0 -- -- 96
2021-02-27 11:00:00 4.7 7 Este 10 Sudeste 0 -- -- 97
2021-02-27 10:00:00 3.8 2 Norte 5 Nordeste 0.2 -- -- 97
2021-02-27 09:00:00 2.9 3 Sudoeste 5 Oeste 0 -- -- 98
2021-02-27 08:00:00 2.8 3 Nordeste 8 Nordeste 0 -- -- 98
2021-02-27 07:00:00 3 5 Este 8 Nordeste 0 -- -- 97
2021-02-27 06:00:00 3.2 2 Nordeste 4 Nordeste 0 -- -- 98
2021-02-27 05:00:00 0.2 0 Calma 6 Sudoeste 0 -- -- 97
2021-02-27 04:00:00 0.3 3 Oeste 8 Oeste 0 -- -- 96
2021-02-27 03:00:00 1 5 Oeste 8 Sudoeste 0 -- -- 97
2021-02-27 02:00:00 1.3 3 Oeste 6 Oeste 0 -- -- 96
2021-02-27 01:00:00 1.1 3 Sudoeste 9 Sudoeste 0 -- -- 94
2021-02-27 00:00:00 2.5 6 Oeste 8 Oeste 0 -- -- 95
2021-02-26 23:00:00 2.5 4 Oeste 6 Oeste 0 -- -- 95
2021-02-26 22:00:00 3.4 0 Calma 5 Oeste 0 -- -- 94
2021-02-26 21:00:00 5.2 0 Calma 6 Norte 0 -- -- 92
2021-02-26 20:00:00 6.7 3 Norte 14 Norte 0 -- -- 89
2021-02-26 19:00:00 8.6 6 Norte 21 Norte 0 -- -- 82
2021-02-26 18:00:00 10.9 12 Norte 23 Nordeste 0 -- -- 70
2021-02-26 17:00:00 13.6 13 Nordeste 23 Este 0 -- -- 43
2021-02-26 16:00:00 15 18 Este 28 Este 0 -- -- 41
2021-02-26 15:00:00 14.4 20 Este 27 Este 0 -- -- 41
2021-02-26 14:00:00 13.3 17 Este 24 Este 0 -- -- 52
2021-02-26 13:00:00 12.9 15 Este 19 Este 0 -- -- 58
2021-02-26 12:00:00 10.8 13 Este 18 Este 0 -- -- 68
2021-02-26 11:00:00 9.9 9 Sudeste 14 Sudeste 0 -- -- 70
2021-02-26 10:00:00 8 5 Este 8 Sudeste 0 -- -- 87
2021-02-26 09:00:00 3.6 2 Este 5 Este 0 -- -- 97
2021-02-26 08:00:00 1.1 5 Este 10 Este 0 -- -- 97
2021-02-26 07:00:00 1.7 6 Este 10 Sudeste 0 -- -- 95
2021-02-26 06:00:00 0.7 0 Calma 2 Este 0 -- -- 95
2021-02-26 05:00:00 1 0 Calma 2 Norte 0 -- -- 94
2021-02-26 04:00:00 1.1 0 Calma 7 Sudoeste 0 -- -- 93
2021-02-26 03:00:00 1.7 0 Calma 2 Sur 0 -- -- 94
2021-02-26 02:00:00 1.9 0 Calma 6 Oeste 0 -- -- 94
2021-02-26 01:00:00 2.1 3 Sudoeste 6 Oeste 0 -- -- 93
2021-02-26 00:00:00 2.4 0 Calma 5 Oeste 0 -- -- 94
2021-02-25 23:00:00 2.6 3 Oeste 8 Oeste 0 -- -- 91
2021-02-25 22:00:00 3.8 5 Oeste 6 Oeste 0 -- -- 90
2021-02-25 21:00:00 5.1 3 Sudoeste 6 Oeste 0 -- -- 88
2021-02-25 20:00:00 6.5 3 Este 17 Norte 0 -- -- 87
2021-02-25 19:00:00 8.1 8 Nordeste 24 Nordeste 0 -- -- 82
2021-02-25 18:00:00 10.4 16 Nordeste 31 Sudeste 0 -- -- 72
2021-02-25 17:00:00 13.7 23 Sudeste 36 Este 0 -- -- 54
2021-02-25 16:00:00 14.3 12 Este 26 Este 0 -- -- 54
2021-02-25 15:00:00 14.7 16 Este 24 Este 0 -- -- 54
2021-02-25 14:00:00 14.1 14 Este 26 Este 0 -- -- 57
2021-02-25 13:00:00 13.4 16 Este 24 Este 0 -- -- 57
2021-02-25 12:00:00 12 10 Este 18 Este 0 -- -- 63
2021-02-25 11:00:00 9.6 9 Este 12 Sudeste 0 -- -- 66
2021-02-25 10:00:00 6.4 7 Este 12 Este 0 -- -- 76
2021-02-25 09:00:00 2.2 0 Calma 4 Oeste 0 -- -- 77
2021-02-25 08:00:00 -1.6 3 Sudoeste 8 Sudoeste 0 -- -- 83
2021-02-25 07:00:00 -1.6 3 Oeste 8 Sudoeste 0 -- -- 85
2021-02-25 06:00:00 -0.7 6 Sudoeste 11 Sudoeste 0 -- -- 84
2021-02-25 05:00:00 -1.2 0 Calma 12 Oeste 0 -- -- 87
2021-02-25 04:00:00 -1.1 0 Calma 8 Sudoeste 0 -- -- 87
2021-02-25 03:00:00 -0.6 2 Oeste 7 Sudoeste 0 -- -- 85
2021-02-25 02:00:00 0.1 3 Sudoeste 6 Oeste 0 -- -- 83
2021-02-25 01:00:00 1.7 6 Sudoeste 10 Oeste 0 -- -- 80
2021-02-25 00:00:00 2.8 2 Noroeste 10 Sudoeste 0 -- -- 74
2021-02-24 23:00:00 2.5 5 Oeste 10 Sudoeste 0 -- -- 76
2021-02-24 22:00:00 5 3 Oeste 10 Sur 0 -- -- 71
2021-02-24 21:00:00 7.8 5 Sur 26 Sur 0 -- -- 62
2021-02-24 20:00:00 8.9 11 Sudoeste 21 Sudoeste 0 -- -- 59
2021-02-24 19:00:00 9.8 4 Sudeste 21 Sudeste 0 -- -- 58
2021-02-24 18:00:00 12.5 13 Sudeste 28 Sudeste 0 -- -- 47
2021-02-24 17:00:00 14.3 18 Sudeste 31 Este 0 -- -- 41
2021-02-24 16:00:00 15.1 20 Sudeste 32 Sudeste 0 -- -- 50
2021-02-24 15:00:00 15.6 18 Sudeste 33 Sudeste 0 -- -- 44
2021-02-24 14:00:00 15.1 18 Sudeste 33 Sudeste 0 -- -- 42
2021-02-24 13:00:00 14.9 18 Sudeste 33 Sudeste 0 -- -- 49
2021-02-24 12:00:00 13.1 7 Este 18 Este 0 -- -- 63
2021-02-24 11:00:00 10.8 10 Este 16 Este 0.2 -- -- 71
2021-02-24 10:00:00 8 6 Sudeste 12 Sudeste 0 -- -- 81
2021-02-24 09:00:00 4.8 6 Sudeste 10 Sudeste 0 -- -- 87
2021-02-24 08:00:00 3 5 Sudeste 9 Sudeste 0 -- -- 89
2021-02-24 07:00:00 4.4 8 Sur 12 Sur 0 -- -- 89
2021-02-24 06:00:00 2.7 2 Sudeste 10 Sudeste 0 -- -- 96
2021-02-24 05:00:00 0.7 0 Calma 3 Sudoeste 0 -- -- 95
2021-02-24 04:00:00 1.2 0 Calma 5 Este 0 -- -- 94
2021-02-24 03:00:00 1.3 2 Sudeste 5 Oeste 0 -- -- 94
2021-02-24 02:00:00 0.7 0 Calma 6 Oeste 0 -- -- 91
2021-02-24 01:00:00 1.4 0 Calma 9 Oeste 0 -- -- 89
2021-02-24 00:00:00 2.6 3 Sudoeste 6 Oeste 0 -- -- 85
2021-02-23 23:00:00 4.9 0 Calma 4 Sudeste 0 -- -- 76
2021-02-23 22:00:00 4.6 0 Calma 6 Oeste 0 -- -- 79
2021-02-23 21:00:00 4.6 3 Oeste 6 Norte 0 -- -- 83
2021-02-23 20:00:00 6.5 4 Sudeste 12 Sudeste 0 -- -- 72
2021-02-23 19:00:00 8.3 4 Sur 21 Sudeste 0 -- -- 67
2021-02-23 18:00:00 11.1 16 Sudeste 27 Sudeste 0 -- -- 57
2021-02-23 17:00:00 12.7 15 Sudeste 24 Sudeste 0 -- -- 51
2021-02-23 16:00:00 12.6 15 Sudeste 27 Este 0 -- -- 55
2021-02-23 15:00:00 12.1 15 Este 24 Este 0 -- -- 55
2021-02-23 14:00:00 11.8 8 Este 19 Este 0 -- -- 59
2021-02-23 13:00:00 9.9 9 Este 21 Este 0 -- -- 66
2021-02-23 12:00:00 8.3 7 Este 13 Este 0 -- -- 74
2021-02-23 11:00:00 6 9 Sudeste 15 Sudeste 0 -- -- 87
2021-02-23 10:00:00 3.7 3 Este 8 Sudeste 0 -- -- 94
2021-02-23 09:00:00 1.3 5 Sudeste 8 Este 0 -- -- 96
2021-02-23 08:00:00 0.8 6 Sur 14 Sudeste 0 -- -- 96
2021-02-23 07:00:00 1.5 9 Este 15 Este 0 -- -- 97
2021-02-23 06:00:00 1.5 2 Sudoeste 9 Sudeste 0.2 -- -- 97
2021-02-23 05:00:00 1.8 2 Sur 11 Este 0 -- -- 97
2021-02-23 04:00:00 2.1 5 Este 10 Nordeste 0 -- -- 96
2021-02-23 03:00:00 2.2 3 Nordeste 12 Este 0 -- -- 96
2021-02-23 02:00:00 2.5 0 Calma 15 Este 0 -- -- 97
2021-02-23 01:00:00 2.7 9 Este 13 Este 0 -- -- 97
2021-02-23 00:00:00 2.8 7 Nordeste 11 Nordeste 0 -- -- 97
2021-02-22 23:00:00 2.9 6 Nordeste 9 Nordeste 0 -- -- 97
2021-02-22 22:00:00 3.1 6 Nordeste 9 Norte 0.2 -- -- 96
2021-02-22 21:00:00 3.4 4 Nordeste 8 Nordeste 0.2 -- -- 95
2021-02-22 20:00:00 3.5 2 Norte 6 Norte 0 -- -- 94
2021-02-22 19:00:00 3.7 4 Norte 9 Noroeste 0 -- -- 91
2021-02-22 18:00:00 3.7 5 Noroeste 14 Oeste 0 -- -- 90
2021-02-22 17:00:00 3.7 9 Noroeste 17 Noroeste 0.2 -- -- 89
2021-02-22 16:00:00 3.8 8 Noroeste 17 Noroeste 0 -- -- 86
2021-02-22 15:00:00 3.8 6 Noroeste 13 Noroeste 0 -- -- 87
2021-02-22 14:00:00 3.8 8 Noroeste 20 Noroeste 0 -- -- 86
2021-02-22 13:00:00 3.5 14 Oeste 28 Oeste 0 -- -- 88
2021-02-22 12:00:00 3.5 14 Noroeste 24 Noroeste 0 -- -- 90
2021-02-22 11:00:00 2.4 15 Oeste 25 Oeste 0 -- -- 90
2021-02-22 10:00:00 2.5 13 Oeste 22 Oeste 0 -- -- 92
2021-02-22 09:00:00 2.6 10 Oeste 17 Oeste 0 -- -- 91
2021-02-22 08:00:00 2.2 5 Oeste 22 Oeste 0 -- -- 93
2021-02-22 07:00:00 2.3 11 Oeste 31 Oeste 0 -- -- 92
2021-02-22 06:00:00 2.4 19 Oeste 32 Oeste 0 -- -- 91
2021-02-22 05:00:00 3.2 18 Oeste 33 Oeste 0.2 -- -- 90
2021-02-22 04:00:00 3.6 13 Oeste 22 Oeste 0.6 -- -- 91
2021-02-22 03:00:00 4.3 14 Sudoeste 31 Oeste 1 -- -- 91
2021-02-22 02:00:00 5.3 12 Sudoeste 26 Sudoeste 0.4 -- -- 92
2021-02-22 01:00:00 5.6 0 Calma 19 Sudeste 0.4 -- -- 92
2021-02-22 00:00:00 6.6 10 Sudeste 24 Sudeste 0 -- -- 88
2021-02-21 23:00:00 7.1 12 Sudeste 25 Sudeste 0 -- -- 85
2021-02-21 22:00:00 7.1 12 Sudeste 26 Sudeste 0 -- -- 82
2021-02-21 21:00:00 7.5 15 Sudeste 28 Sudeste 0 -- -- 79
2021-02-21 20:00:00 7.6 13 Sudeste 33 Sudeste 0 -- -- 77
2021-02-21 19:00:00 8 26 Sudeste 38 Sudeste 0 -- -- 75
2021-02-21 18:00:00 8.6 20 Sudeste 40 Sudeste 0 -- -- 72
2021-02-21 17:00:00 9.3 22 Sudeste 50 Sudeste 0 -- -- 67
2021-02-21 16:00:00 9.7 26 Sudeste 45 Sudeste 0 -- -- 66
2021-02-21 15:00:00 9.3 24 Sudeste 42 Sudeste 0 -- -- 70
2021-02-21 14:00:00 10 26 Sudeste 49 Sudeste 0 -- -- 65
2021-02-21 13:00:00 9.1 28 Sudeste 48 Sudeste 0 -- -- 70
2021-02-21 12:00:00 8.8 23 Sudeste 40 Sudeste 0 -- -- 72
2021-02-21 11:00:00 8 31 Sudeste 42 Este 0 -- -- 69
2021-02-21 10:00:00 7.8 16 Sudeste 33 Sudeste 0 -- -- 65
2021-02-21 09:00:00 6.4 10 Sudeste 18 Sudeste 0 -- -- 67
2021-02-21 08:00:00 7 13 Sudeste 22 Sudeste 0 -- -- 63
2021-02-21 07:00:00 6.2 7 Este 23 Sudeste 0 -- -- 69
2021-02-21 06:00:00 7.4 6 Sudeste 27 Sudeste 0 -- -- 62
2021-02-21 05:00:00 7.1 10 Sudeste 24 Sudeste 0 -- -- 63
2021-02-21 04:00:00 4.7 12 Sudeste 26 Este 0 -- -- 82
2021-02-21 03:00:00 5.1 7 Sudeste 44 Sur 0 -- -- 78
2021-02-21 02:00:00 8.7 16 Sudeste 48 Sur 0 -- -- 49
2021-02-21 01:00:00 10.3 26 Sur 42 Sur 0 -- -- 43
2021-02-21 00:00:00 6.6 10 Sudeste 21 Sur 0 -- -- 71
2021-02-20 23:00:00 6.6 9 Sur 18 Sur 0 -- -- 71
2021-02-20 22:00:00 7.1 7 Este 18 Sudeste 0 -- -- 69
2021-02-20 21:00:00 8.2 5 Sudeste 25 Sur 0 -- -- 59
2021-02-20 20:00:00 9.2 3 Sudeste 24 Sudeste 0 -- -- 50
2021-02-20 19:00:00 10.9 5 Sudeste 20 Sur 0 -- -- 47
2021-02-20 18:00:00 14.3 10 Sudeste 28 Sur 0 -- -- 34
2021-02-20 17:00:00 15.4 21 Sur 33 Sur 0 -- -- 24
2021-02-20 16:00:00 16.5 15 Sudoeste 42 Sur 0 -- -- 22
2021-02-20 15:00:00 18.4 19 Sur 47 Sur 0 -- -- 21
2021-02-20 14:00:00 17.9 21 Sur 39 Sudoeste 0 -- -- 23
2021-02-20 13:00:00 16.5 21 Sudeste 46 Sudeste 0 -- -- 26
2021-02-20 12:00:00 15.8 20 Sur 36 Sur 0 -- -- 30
2021-02-20 11:00:00 15.1 16 Sur 32 Sudeste 0 -- -- 31
2021-02-20 10:00:00 12.6 13 Sur 24 Sudeste 0 -- -- 33
2021-02-20 09:00:00 7.9 6 Sudeste 18 Sudeste 0 -- -- 48
2021-02-20 08:00:00 9.4 9 Sur 24 Sur 0 -- -- 40
2021-02-20 07:00:00 9 10 Sudeste 35 Sur 0 -- -- 44
2021-02-20 06:00:00 10.1 16 Sudeste 38 Sudeste 0 -- -- 43
2021-02-20 05:00:00 11.1 21 Sur 37 Sudeste 0 -- -- 40
2021-02-20 04:00:00 9.6 11 Sur 26 Sur 0 -- -- 44
2021-02-20 03:00:00 9.1 10 Sur 26 Sur 0 -- -- 49
2021-02-20 02:00:00 9.2 14 Sur 28 Sur 0 -- -- 51
2021-02-20 01:00:00 6 8 Sudeste 15 Sudeste 0 -- -- 53
2021-02-20 00:00:00 7.7 5 Sudeste 16 Sudeste 0 -- -- 46
2021-02-19 23:00:00 9.3 7 Sur 13 Sur 0 -- -- 39
2021-02-19 22:00:00 8.7 5 Sur 13 Sur 0 -- -- 41
2021-02-19 21:00:00 9.5 6 Sur 13 Sur 0 -- -- 38
2021-02-19 20:00:00 10.4 8 Sur 15 Sur 0 -- -- 35
2021-02-19 19:00:00 11.1 7 Sudoeste 29 Sudoeste 0 -- -- 35
2021-02-19 18:00:00 14.1 11 Sudoeste 33 Sudoeste 0 -- -- 29
2021-02-19 17:00:00 15.5 17 Sudoeste 38 Sudoeste 0 -- -- 26
2021-02-19 16:00:00 15.9 18 Sudoeste 39 Sudoeste 0 -- -- 25
2021-02-19 15:00:00 15.4 19 Sudoeste 39 Sudoeste 0 -- -- 28
2021-02-19 14:00:00 15.3 20 Sudoeste 40 Sudoeste 0 -- -- 29
2021-02-19 13:00:00 14.6 24 Sudoeste 38 Sudoeste 0 -- -- 30
2021-02-19 12:00:00 13.8 22 Sudoeste 45 Sudoeste 0 -- -- 32
2021-02-19 11:00:00 13 15 Sudoeste 31 Sudoeste 0 -- -- 37
2021-02-19 10:00:00 10.7 12 Sur 23 Sudoeste 0 -- -- 53
2021-02-19 09:00:00 8 12 Sur 18 Sur 0 -- -- 63
2021-02-19 08:00:00 6.1 11 Sur 15 Sudoeste 0 -- -- 63
2021-02-19 07:00:00 2.8 3 Sudoeste 12 Sur 0 -- -- 71
2021-02-19 06:00:00 1.8 5 Sudoeste 10 Sudoeste 0 -- -- 74
2021-02-19 05:00:00 1.2 5 Oeste 8 Oeste 0 -- -- 78
2021-02-19 04:00:00 1.7 0 Calma 6 Nordeste 0 -- -- 78
2021-02-19 03:00:00 2.1 2 Norte 8 Nordeste 0 -- -- 77
2021-02-19 02:00:00 3.5 0 Calma 11 Noroeste 0 -- -- 71
2021-02-19 01:00:00 5.6 0 Calma 18 Oeste 0 -- -- 62
2021-02-19 00:00:00 6.8 12 Oeste 18 Oeste 0 -- -- 57
2021-02-18 23:00:00 3.4 2 Nordeste 7 Oeste 0 -- -- 72
2021-02-18 22:00:00 5.3 3 Noroeste 14 Sudoeste 0 -- -- 61
2021-02-18 21:00:00 6.7 3 Noroeste 14 Sudoeste 0 -- -- 58
2021-02-18 20:00:00 8.6 5 Oeste 19 Oeste 0 -- -- 49
2021-02-18 19:00:00 9.9 10 Sudoeste 28 Oeste 0 -- -- 45
2021-02-18 18:00:00 12.4 17 Oeste 37 Sudoeste 0 -- -- 38
2021-02-18 17:00:00 14 21 Oeste 43 Oeste 0 -- -- 32
2021-02-18 16:00:00 14.8 23 Oeste 47 Sudoeste 0 -- -- 30
2021-02-18 15:00:00 15 27 Oeste 46 Oeste 0 -- -- 28
2021-02-18 14:00:00 14.6 25 Oeste 46 Sudoeste 0 -- -- 28
2021-02-18 13:00:00 14.3 17 Sudoeste 36 Oeste 0 -- -- 33
2021-02-18 12:00:00 13.2 20 Oeste 41 Oeste 0 -- -- 38
2021-02-18 11:00:00 12.9 12 Sudoeste 30 Sudoeste 0 -- -- 43
2021-02-18 10:00:00 12.1 12 Sudoeste 29 Sudoeste 0 -- -- 42
2021-02-18 09:00:00 8.2 14 Sur 23 Sur 0 -- -- 49
2021-02-18 08:00:00 6.7 16 Sur 23 Sur 0 -- -- 49
2021-02-18 07:00:00 6.4 8 Sudoeste 24 Sur 0 -- -- 50
2021-02-18 06:00:00 7.4 19 Sur 28 Sur 0 -- -- 47
2021-02-18 05:00:00 8.1 17 Sur 27 Sur 0 -- -- 44
2021-02-18 04:00:00 8.7 18 Sur 31 Sur 0 -- -- 43
2021-02-18 03:00:00 7.5 18 Sur 28 Sur 0 -- -- 49
2021-02-18 02:00:00 6.8 17 Sur 24 Sur 0 -- -- 54
2021-02-18 01:00:00 7.1 18 Sur 25 Sur 0 -- -- 54
2021-02-18 00:00:00 9.6 16 Sur 29 Sudoeste 0 -- -- 43
2021-02-17 23:00:00 9.8 18 Sur 30 Sur 0 -- -- 43
2021-02-17 22:00:00 10.4 20 Sur 30 Sur 0 -- -- 42
2021-02-17 21:00:00 11 16 Sur 24 Sudoeste 0 -- -- 45
2021-02-17 20:00:00 10.7 10 Sur 24 Sudoeste 0 -- -- 43
2021-02-17 19:00:00 12.2 14 Sudoeste 26 Sudoeste 0 -- -- 38
2021-02-17 18:00:00 14.2 11 Sudoeste 37 Oeste 0 -- -- 36
2021-02-17 17:00:00 15.9 20 Oeste 44 Oeste 0 -- -- 33
2021-02-17 16:00:00 16.1 25 Oeste 45 Oeste 0 -- -- 33
2021-02-17 15:00:00 15.7 28 Oeste 49 Oeste 0 -- -- 33
2021-02-17 14:00:00 15.8 23 Oeste 48 Oeste 0 -- -- 32
2021-02-17 13:00:00 16.3 15 Oeste 34 Oeste 0 -- -- 34
2021-02-17 12:00:00 13.8 19 Oeste 30 Oeste 0 -- -- 42
2021-02-17 11:00:00 11.2 8 Sudoeste 23 Sudoeste 0 -- -- 62
2021-02-17 10:00:00 9.6 8 Sudoeste 17 Sur 0 -- -- 69
2021-02-17 09:00:00 7.4 9 Sur 17 Sur 0 -- -- 78
2021-02-17 08:00:00 1.8 0 Calma 3 Sudoeste 0 -- -- 90
2021-02-17 07:00:00 1.1 2 Sudoeste 6 Oeste 0 -- -- 91
2021-02-17 06:00:00 1 3 Oeste 9 Sudoeste 0 -- -- 89
2021-02-17 05:00:00 2.7 5 Sudoeste 10 Sudoeste 0 -- -- 84
2021-02-17 04:00:00 2.6 6 Sudoeste 9 Oeste 0 -- -- 84
2021-02-17 03:00:00 2.7 0 Calma 8 Oeste 0 -- -- 85
2021-02-17 02:00:00 4.3 5 Sudoeste 9 Sudoeste 0 -- -- 79
2021-02-17 01:00:00 4.1 0 Calma 9 Oeste 0 -- -- 80
2021-02-17 00:00:00 6.3 6 Oeste 15 Oeste 0 -- -- 69
2021-02-16 23:00:00 6.8 6 Oeste 13 Sudoeste 0 -- -- 66
2021-02-16 22:00:00 7.3 6 Oeste 17 Oeste 0 -- -- 62
2021-02-16 21:00:00 7.5 7 Oeste 12 Oeste 0 -- -- 62
2021-02-16 20:00:00 8.1 4 Oeste 14 Oeste 0 -- -- 58
2021-02-16 19:00:00 11.8 6 Oeste 31 Sudoeste 0 -- -- 41
2021-02-16 18:00:00 14 15 Sudoeste 39 Oeste 0 -- -- 33
2021-02-16 17:00:00 15.8 24 Oeste 40 Oeste 0 -- -- 31
2021-02-16 16:00:00 16.7 25 Oeste 45 Oeste 0 -- -- 31
2021-02-16 15:00:00 17.3 23 Oeste 42 Sudoeste 0 -- -- 29
2021-02-16 14:00:00 17.5 21 Oeste 36 Oeste 0 -- -- 33
2021-02-16 13:00:00 16.9 17 Oeste 32 Oeste 0 -- -- 34
2021-02-16 12:00:00 16.3 11 Oeste 21 Sudoeste 0 -- -- 35
2021-02-16 11:00:00 10.6 9 Oeste 24 Oeste 0 -- -- 61
2021-02-16 10:00:00 7.3 13 Oeste 21 Oeste 0 -- -- 71
2021-02-16 09:00:00 4.9 7 Oeste 13 Oeste 0 -- -- 72
2021-02-16 08:00:00 1.8 9 Sudoeste 14 Oeste 0 -- -- 79
2021-02-16 07:00:00 -0.2 7 Oeste 10 Sudoeste 0 -- -- 90
2021-02-16 06:00:00 -1.3 4 Oeste 9 Sudoeste 0 -- -- 92
2021-02-16 05:00:00 -0.9 3 Oeste 12 Sudoeste 0 -- -- 91
2021-02-16 04:00:00 -0.5 6 Oeste 9 Oeste 0 -- -- 95
2021-02-16 03:00:00 0.2 8 Oeste 11 Sudoeste 0 -- -- 93
2021-02-16 02:00:00 0.7 5 Oeste 8 Oeste 0 -- -- 95
2021-02-16 01:00:00 1 3 Sudoeste 9 Sudoeste 0 -- -- 94
2021-02-16 00:00:00 1.8 0 Calma 8 Oeste 0 -- -- 93
2021-02-15 23:00:00 2.9 5 Sudoeste 13 Sudoeste 0 -- -- 89
2021-02-15 22:00:00 4.1 8 Oeste 10 Oeste 0 -- -- 89
2021-02-15 21:00:00 5.1 8 Sudoeste 11 Sudoeste 0 -- -- 85
2021-02-15 20:00:00 5 4 Sudoeste 9 Oeste 0 -- -- 83
2021-02-15 19:00:00 7.6 0 Calma 15 Este 0 -- -- 75
2021-02-15 18:00:00 10.6 13 Este 22 Sudeste 0 -- -- 64
2021-02-15 17:00:00 13.5 13 Sudeste 22 Este 0 -- -- 56
2021-02-15 16:00:00 13.8 13 Este 24 Este 0 -- -- 57
2021-02-15 15:00:00 13.5 14 Este 23 Este 0.2 -- -- 56
2021-02-15 14:00:00 12.7 14 Este 21 Este 0 -- -- 59
2021-02-15 13:00:00 13.7 3 Este 13 Nordeste 0 -- -- 49
2021-02-15 12:00:00 12 4 Este 9 Este 0 -- -- 55
2021-02-15 11:00:00 9.9 4 Este 6 Este 0 -- -- 64
2021-02-15 10:00:00 5.9 5 Sudoeste 10 Sudoeste 0 -- -- 76
2021-02-15 09:00:00 1.7 4 Oeste 6 Oeste 0 -- -- 89
2021-02-15 08:00:00 -0.7 2 Sudoeste 10 Oeste 0 -- -- 93
2021-02-15 07:00:00 -0.4 6 Sudoeste 9 Oeste 0 -- -- 94
2021-02-15 06:00:00 0.3 2 Sudeste 10 Oeste 0 -- -- 94
2021-02-15 05:00:00 0.3 3 Oeste 6 Oeste 0 -- -- 93
2021-02-15 04:00:00 1.1 0 Calma 5 Sur 0 -- -- 94
2021-02-15 03:00:00 1.5 2 Oeste 5 Oeste 0 -- -- 97
2021-02-15 02:00:00 0.9 0 Calma 5 Sudeste 0 -- -- 94
2021-02-15 01:00:00 1.3 0 Calma 7 Oeste 0 -- -- 94
2021-02-15 00:00:00 1.6 0 Calma 5 Sudoeste 0 -- -- 92
2021-02-14 23:00:00 2.6 0 Calma 4 Sudoeste 0 -- -- 90
2021-02-14 22:00:00 3.4 2 Oeste 6 Oeste 0 -- -- 88
2021-02-14 21:00:00 4 2 Sudoeste 5 Oeste 0 -- -- 84
2021-02-14 20:00:00 5.8 0 Calma 10 Oeste 0 -- -- 78
2021-02-14 19:00:00 7.5 0 Calma 10 Sudeste 0 -- -- 71
2021-02-14 18:00:00 11 13 Sudeste 23 Este 0 -- -- 58
2021-02-14 17:00:00 13.1 17 Este 23 Este 0 -- -- 52
2021-02-14 16:00:00 13.7 14 Este 23 Este 0 -- -- 51
2021-02-14 15:00:00 14 10 Este 23 Este 0 -- -- 53
2021-02-14 14:00:00 13.6 10 Este 19 Este 0 -- -- 57
2021-02-14 13:00:00 12.4 10 Este 18 Este 0 -- -- 60
2021-02-14 12:00:00 10.8 10 Este 18 Este 0.2 -- -- 69
2021-02-14 11:00:00 9.4 9 Sudeste 14 Este 0 -- -- 71
2021-02-14 10:00:00 9.7 0 Calma 10 Sudoeste 0 -- -- 71
2021-02-14 09:00:00 3.1 4 Sudoeste 7 Sudoeste 0 -- -- 91
2021-02-14 08:00:00 0.3 6 Oeste 10 Sudoeste 0 -- -- 95
2021-02-14 07:00:00 0.6 2 Sudoeste 5 Sudoeste 0 -- -- 94
2021-02-14 06:00:00 1.8 0 Calma 15 Oeste 0 -- -- 92
2021-02-14 05:00:00 2.6 9 Oeste 15 Oeste 0 -- -- 92
2021-02-14 04:00:00 2 3 Oeste 10 Oeste 0 -- -- 94
2021-02-14 03:00:00 3 9 Oeste 18 Oeste 0 -- -- 89
2021-02-14 02:00:00 3.3 10 Oeste 17 Oeste 0 -- -- 91
2021-02-14 01:00:00 3.1 10 Oeste 18 Oeste 0 -- -- 92
2021-02-14 00:00:00 3.4 10 Oeste 15 Sudoeste 0 -- -- 90
2021-02-13 23:00:00 3.5 9 Oeste 18 Oeste 0 -- -- 89
2021-02-13 22:00:00 5 11 Oeste 17 Oeste 0 -- -- 85
2021-02-13 21:00:00 5 13 Oeste 19 Oeste 0 -- -- 83
2021-02-13 20:00:00 6.3 6 Oeste 15 Noroeste 0 -- -- 76
2021-02-13 19:00:00 7.7 8 Oeste 20 Oeste 0 -- -- 62
2021-02-13 18:00:00 9.2 12 Oeste 27 Oeste 0 -- -- 53
2021-02-13 17:00:00 11 13 Noroeste 29 Noroeste 0 -- -- 53
2021-02-13 16:00:00 9.7 17 Oeste 32 Oeste 0 -- -- 56
2021-02-13 15:00:00 8.9 18 Oeste 28 Oeste 0 -- -- 58
2021-02-13 14:00:00 9.5 16 Oeste 30 Oeste 0 -- -- 56
2021-02-13 13:00:00 9.4 19 Oeste 27 Oeste 0 -- -- 64
2021-02-13 08:00:00 -- -- -- -- -- -- -- -- --
2021-02-13 07:00:00 -- -- -- -- -- -- -- -- --
2021-02-13 06:00:00 -- -- -- -- -- -- -- -- --
2021-02-13 05:00:00 3.4 12 Oeste 29 Sudoeste 0 -- -- 95
2021-02-13 04:00:00 3 14 Oeste 22 Oeste 0 -- -- 95
2021-02-13 03:00:00 3.1 15 Oeste 19 Sudoeste 0 -- -- 92
2021-02-13 02:00:00 3.1 14 Oeste 20 Oeste 0 -- -- 92
2021-02-13 01:00:00 3.7 15 Oeste 22 Oeste 0 -- -- 91
2021-02-13 00:00:00 4.5 11 Oeste 22 Oeste 0 -- -- 88
2021-02-12 23:00:00 5.3 12 Oeste 19 Oeste 0 -- -- 88
2021-02-12 22:00:00 5.4 14 Oeste 23 Oeste 0 -- -- 88
2021-02-12 21:00:00 6.4 13 Oeste 30 Oeste 0 -- -- 83
2021-02-12 20:00:00 7 14 Oeste 34 Oeste 0 -- -- 83
2021-02-12 19:00:00 7.4 17 Oeste 32 Oeste 0 -- -- 78
2021-02-12 18:00:00 8 17 Oeste 38 Oeste 0 -- -- 76
2021-02-12 17:00:00 7.8 17 Oeste 46 Oeste 0.2 -- -- 75
2021-02-12 16:00:00 8.3 17 Oeste 51 Oeste 0 -- -- 74
2021-02-12 15:00:00 7.4 21 Oeste 47 Oeste 0 -- -- 81
2021-02-12 14:00:00 7.5 23 Oeste 40 Oeste 0.2 -- -- 82
2021-02-12 13:00:00 8.3 19 Oeste 44 Oeste 0.2 -- -- 80
2021-02-12 12:00:00 7.2 20 Oeste 36 Oeste 0 -- -- 85
2021-02-12 11:00:00 5.7 16 Oeste 34 Oeste 1 -- -- 90
2021-02-12 10:00:00 4.9 22 Oeste 42 Oeste 2.4 -- -- 93
2021-02-12 09:00:00 7.6 8 Oeste 26 Sudoeste 0 -- -- 89
2021-02-12 08:00:00 8.2 13 Sudoeste 24 Sudoeste 0.2 -- -- 83
2021-02-12 07:00:00 7.8 9 Sudoeste 17 Sudoeste 0 -- -- 91
2021-02-12 06:00:00 8.3 6 Oeste 22 Sudoeste 0 -- -- 88
2021-02-12 05:00:00 8.7 9 Sudoeste 25 Sur 0 -- -- 85
2021-02-12 04:00:00 9.1 9 Sudoeste 18 Sudoeste 0 -- -- 83
2021-02-12 03:00:00 8.9 6 Sudoeste 30 Sudoeste 0 -- -- 85
2021-02-12 02:00:00 9.2 12 Sudoeste 21 Sudoeste 0 -- -- 85
2021-02-12 01:00:00 9.3 11 Sudoeste 25 Sudoeste 0 -- -- 84
2021-02-12 00:00:00 9.3 17 Sudoeste 29 Sudoeste 0 -- -- 84
2021-02-11 23:00:00 9 13 Sudoeste 39 Oeste 0 -- -- 86
2021-02-11 22:00:00 9 17 Oeste 32 Sudoeste 0 -- -- 85
2021-02-11 21:00:00 8.1 9 Oeste 17 Sudoeste 0 -- -- 89
2021-02-11 20:00:00 8.3 8 Oeste 23 Sudoeste 0 -- -- 85
2021-02-11 19:00:00 8.6 9 Oeste 29 Oeste 0 -- -- 81
2021-02-11 18:00:00 9.5 20 Oeste 38 Oeste 0 -- -- 77
2021-02-11 17:00:00 10.2 24 Oeste 43 Oeste 0 -- -- 75
2021-02-11 16:00:00 11.9 25 Oeste 39 Oeste 0 -- -- 67
2021-02-11 15:00:00 11.3 26 Oeste 38 Oeste 0 -- -- 68
2021-02-11 14:00:00 11.8 28 Oeste 41 Oeste 0 -- -- 68
2021-02-11 13:00:00 11.8 23 Oeste 44 Oeste 0 -- -- 67
2021-02-11 12:00:00 11.4 23 Oeste 40 Oeste 0.2 -- -- 68
2021-02-11 11:00:00 10.4 20 Oeste 34 Oeste 0 -- -- 72
2021-02-11 10:00:00 8.3 16 Oeste 29 Sudoeste 0 -- -- 75
2021-02-11 09:00:00 6 8 Noroeste 23 Oeste 0 -- -- 81
2021-02-11 08:00:00 3.9 19 Oeste 30 Oeste 0 -- -- 88
2021-02-11 07:00:00 4.3 9 Oeste 27 Sudoeste 0 -- -- 84
2021-02-11 06:00:00 5.8 13 Oeste 31 Sudoeste 0 -- -- 73
2021-02-11 05:00:00 4.7 14 Oeste 27 Oeste 0 -- -- 72
2021-02-11 04:00:00 4.4 12 Oeste 25 Oeste 0 -- -- 71
2021-02-11 03:00:00 4.1 12 Oeste 25 Sudoeste 0 -- -- 77
2021-02-11 02:00:00 3.6 13 Oeste 23 Oeste 0 -- -- 78
2021-02-11 01:00:00 4.6 13 Oeste 27 Oeste 0 -- -- 77
2021-02-11 00:00:00 3.7 12 Oeste 25 Sudoeste 0 -- -- 88
2021-02-10 23:00:00 3.2 11 Oeste 18 Oeste 0 -- -- 87
2021-02-10 22:00:00 2.2 6 Noroeste 11 Oeste 0 -- -- 84
2021-02-10 21:00:00 2.5 4 Oeste 17 Sudoeste 0 -- -- 78
2021-02-10 20:00:00 3.5 5 Oeste 15 Noroeste 0 -- -- 75
2021-02-10 19:00:00 5.5 9 Oeste 27 Oeste 0 -- -- 67
2021-02-10 18:00:00 7.6 15 Oeste 33 Oeste 0 -- -- 58
2021-02-10 17:00:00 8.8 21 Oeste 45 Oeste 0 -- -- 53
2021-02-10 16:00:00 8.1 26 Oeste 44 Oeste 0 -- -- 52
2021-02-10 15:00:00 8.3 26 Oeste 46 Oeste 0 -- -- 52
2021-02-10 14:00:00 7.5 27 Oeste 49 Noroeste 0 -- -- 54
2021-02-10 13:00:00 7 30 Oeste 56 Oeste 0 -- -- 53
2021-02-10 12:00:00 6.1 34 Oeste 61 Oeste 0 -- -- 64
2021-02-10 11:00:00 5.1 33 Oeste 55 Oeste 0 -- -- 77
2021-02-10 10:00:00 3.5 32 Oeste 50 Oeste 0 -- -- 86
2021-02-10 09:00:00 2.9 26 Oeste 46 Oeste 0.2 -- -- 87
2021-02-10 08:00:00 2 22 Oeste 45 Sudoeste 0 -- -- 87
2021-02-10 07:00:00 2.7 28 Oeste 76 Oeste 0.6 -- -- 83
2021-02-10 06:00:00 3.5 21 Sudoeste 44 Oeste 0.8 -- -- 90
2021-02-10 05:00:00 3.6 19 Oeste 39 Oeste 1 -- -- 89
2021-02-10 04:00:00 3.7 17 Oeste 36 Oeste 0.2 -- -- 89
2021-02-10 03:00:00 3.8 19 Sudoeste 39 Sudoeste 0.2 -- -- 88
2021-02-10 02:00:00 3.6 18 Sudoeste 39 Sudoeste 0 -- -- 89
2021-02-10 01:00:00 4 15 Sudoeste 37 Sudoeste 0.6 -- -- 89
2021-02-10 00:00:00 3 11 Noroeste 33 Oeste 0.4 -- -- 92
2021-02-09 23:00:00 4.6 18 Sudoeste 39 Sudoeste 0.2 -- -- 87
2021-02-09 22:00:00 4.9 19 Sudoeste 50 Oeste 0.2 -- -- 84
2021-02-09 21:00:00 3.6 12 Sudoeste 37 Sur 0.6 -- -- 90
2021-02-09 20:00:00 3.8 10 Sudoeste 28 Sudoeste 0 -- -- 90
2021-02-09 19:00:00 3.8 16 Sudoeste 35 Sudoeste 0 -- -- 88
2021-02-09 18:00:00 3 12 Sudoeste 59 Oeste 2 -- -- 93
2021-02-09 17:00:00 5.2 32 Oeste 63 Oeste 2 -- -- 86
2021-02-09 16:00:00 5.6 15 Sudoeste 53 Sudoeste 0.4 -- -- 86
2021-02-09 15:00:00 6.7 36 Sudoeste 73 Sudoeste 0 -- -- 76
2021-02-09 14:00:00 8.8 31 Sudoeste 72 Sudoeste 0.2 -- -- 67
2021-02-09 13:00:00 8.1 32 Sudoeste 65 Sudoeste 0 -- -- 72
2021-02-09 12:00:00 7.1 24 Sudoeste 49 Sudoeste 0 -- -- 74
2021-02-09 11:00:00 5.9 24 Sudoeste 53 Sudoeste 0 -- -- 79
2021-02-09 10:00:00 4.8 23 Sudoeste 43 Oeste 0 -- -- 83
2021-02-09 09:00:00 3.5 12 Sudoeste 37 Sudoeste 0 -- -- 86
2021-02-09 08:00:00 2.5 11 Sudoeste 32 Oeste 0 -- -- 87
2021-02-09 07:00:00 2.2 17 Oeste 41 Oeste 0 -- -- 88
2021-02-09 06:00:00 2.4 22 Oeste 47 Sudoeste 0 -- -- 85
2021-02-09 05:00:00 2.9 22 Sudoeste 49 Oeste 0 -- -- 84
2021-02-09 04:00:00 3.3 23 Oeste 54 Oeste 0 -- -- 89
2021-02-09 03:00:00 3.6 20 Oeste 41 Sudoeste 0 -- -- 87
2021-02-09 02:00:00 3.9 18 Oeste 37 Oeste 0 -- -- 88
2021-02-09 01:00:00 3.2 19 Oeste 32 Oeste 0 -- -- 91
2021-02-09 00:00:00 3.3 17 Oeste 40 Oeste 0 -- -- 89
2021-02-08 23:00:00 3.6 19 Oeste 45 Oeste 0.2 -- -- 89
2021-02-08 22:00:00 3.7 27 Oeste 46 Oeste 0 -- -- 87
2021-02-08 21:00:00 3.5 23 Oeste 46 Oeste 0 -- -- 88
2021-02-08 20:00:00 3.6 26 Oeste 47 Oeste 0.2 -- -- 86
2021-02-08 19:00:00 4.1 21 Oeste 42 Oeste 0 -- -- 87
2021-02-08 18:00:00 4.7 26 Oeste 45 Oeste 0 -- -- 83
2021-02-08 17:00:00 4.2 26 Oeste 46 Oeste 0.2 -- -- 86
2021-02-08 16:00:00 3.3 29 Oeste 49 Oeste 1.2 -- -- 88
2021-02-08 15:00:00 4.1 27 Oeste 59 Oeste 0.4 -- -- 88
2021-02-08 14:00:00 7.5 32 Oeste 61 Oeste 0 -- -- 69
2021-02-08 13:00:00 6.1 33 Oeste 58 Oeste 0 -- -- 71
2021-02-08 12:00:00 5.5 32 Oeste 55 Oeste 0 -- -- 76
2021-02-08 11:00:00 4.8 28 Oeste 51 Oeste 0.2 -- -- 84
2021-02-08 10:00:00 4.8 20 Oeste 37 Sudoeste 0 -- -- 84
2021-02-08 09:00:00 2.3 18 Sudoeste 44 Sudoeste 0.6 -- -- 91
2021-02-08 08:00:00 2.7 18 Sudoeste 47 Sudoeste 1.6 -- -- 90
2021-02-08 07:00:00 3.2 10 Sudoeste 24 Sudoeste 0.4 -- -- 89
2021-02-08 06:00:00 3.4 6 Sudoeste 18 Sudoeste 0 -- -- 87
2021-02-08 05:00:00 3.2 5 Oeste 18 Sudoeste 0 -- -- 87
2021-02-08 04:00:00 3.3 15 Sudoeste 37 Sudoeste 0 -- -- 86
2021-02-08 03:00:00 3.3 25 Sudoeste 43 Sudoeste 0 -- -- 84
2021-02-08 02:00:00 3.4 22 Sudoeste 46 Sudoeste 0 -- -- 85
2021-02-08 01:00:00 3.3 20 Sudoeste 43 Oeste 0 -- -- 85
2021-02-08 00:00:00 3.4 22 Oeste 47 Oeste 0 -- -- 82
2021-02-07 23:00:00 3.4 28 Oeste 45 Sudoeste 0 -- -- 83
2021-02-07 22:00:00 3.8 21 Oeste 43 Oeste 0 -- -- 83
2021-02-07 21:00:00 4.3 26 Oeste 44 Oeste 0 -- -- 81
2021-02-07 20:00:00 4.5 23 Oeste 36 Oeste 0 -- -- 76
2021-02-07 19:00:00 4 21 Oeste 40 Oeste 0 -- -- 74
2021-02-07 18:00:00 4.9 24 Oeste 42 Oeste 0 -- -- 66
2021-02-07 17:00:00 6.7 24 Oeste 37 Oeste 0 -- -- 55
2021-02-07 16:00:00 6.7 21 Oeste 39 Oeste 0 -- -- 51
2021-02-07 15:00:00 6.7 18 Oeste 41 Oeste 0 -- -- 54
2021-02-07 14:00:00 5.5 23 Oeste 41 Oeste 0 -- -- 54
2021-02-07 13:00:00 4.9 17 Oeste 37 Noroeste 0 -- -- 57
2021-02-07 12:00:00 3.8 20 Noroeste 36 Noroeste 0 -- -- 55
2021-02-07 11:00:00 2.9 23 Oeste 39 Oeste 0 -- -- 64
2021-02-07 10:00:00 2.3 20 Oeste 33 Noroeste 0 -- -- 69
2021-02-07 09:00:00 1 13 Noroeste 22 Noroeste 0 -- -- 85
2021-02-07 08:00:00 0.6 13 Noroeste 21 Oeste 0 -- -- 90
2021-02-07 07:00:00 0.7 9 Noroeste 17 Oeste 0 -- -- 91
2021-02-07 06:00:00 1.1 8 Oeste 23 Oeste 0 -- -- 89
2021-02-07 05:00:00 1 10 Oeste 18 Noroeste 0 -- -- 89
2021-02-07 04:00:00 1.3 8 Oeste 15 Oeste 0 -- -- 93
2021-02-07 03:00:00 1.4 6 Noroeste 13 Noroeste 0.4 -- -- 96
2021-02-07 02:00:00 1.7 2 Noroeste 5 Noroeste 0 -- -- 95
2021-02-07 01:00:00 2 2 Norte 9 Norte 0.2 -- -- 95
2021-02-07 00:00:00 2.5 4 Norte 16 Norte 0 -- -- 94
2021-02-06 23:00:00 2.8 8 Norte 15 Nordeste 0 -- -- 94
2021-02-06 22:00:00 2.9 3 Norte 14 Nordeste 0.2 -- -- 94
2021-02-06 21:00:00 2.9 6 Norte 26 Nordeste 1.4 -- -- 94
2021-02-06 20:00:00 3.1 9 Noroeste 23 Oeste 1.4 -- -- 92
2021-02-06 19:00:00 5.1 8 Oeste 19 Sudoeste 0 -- -- 85
2021-02-06 18:00:00 6.3 13 Oeste 22 Sudoeste 0 -- -- 81
2021-02-06 17:00:00 8.4 10 Sudoeste 20 Sudoeste 0 -- -- 73
2021-02-06 16:00:00 6.4 7 Sudoeste 17 Noroeste 1.2 -- -- 84
2021-02-06 15:00:00 6.5 11 Oeste 19 Oeste 0 -- -- 77
2021-02-06 14:00:00 7.8 9 Sudoeste 23 Sudoeste 0.2 -- -- 70
2021-02-06 13:00:00 8.3 14 Oeste 26 Oeste 0 -- -- 68
2021-02-06 12:00:00 9.2 17 Sudoeste 32 Sudoeste 0 -- -- 64
2021-02-06 11:00:00 7.9 17 Sudoeste 31 Oeste 0 -- -- 73
2021-02-06 10:00:00 6.4 11 Sudoeste 24 Sudoeste 0 -- -- 80
2021-02-06 09:00:00 4.5 10 Sudoeste 27 Sudoeste 0 -- -- 85
2021-02-06 08:00:00 4.7 16 Sudoeste 29 Sur 0.2 -- -- 87
2021-02-06 07:00:00 4 7 Sur 19 Sudoeste 0 -- -- 88
2021-02-06 06:00:00 4.6 9 Sudoeste 21 Sudoeste 0 -- -- 89
2021-02-06 05:00:00 4.3 4 Sur 23 Este 0.2 -- -- 93
2021-02-06 04:00:00 5.3 18 Sudeste 30 Sudeste 1 -- -- 88
2021-02-06 03:00:00 6.1 6 Sudoeste 15 Sudoeste 0 -- -- 87
2021-02-06 02:00:00 6.5 4 Oeste 28 Oeste 0 -- -- 82
2021-02-06 01:00:00 7.6 19 Sudoeste 36 Sudoeste 0 -- -- 77
2021-02-06 00:00:00 9.1 16 Sudoeste 31 Sudoeste 0 -- -- 65
2021-02-05 23:00:00 9 14 Sudoeste 31 Sur 0 -- -- 56
2021-02-05 22:00:00 6.5 5 Sudeste 17 Sudeste 0 -- -- 75
2021-02-05 21:00:00 6.5 7 Sudeste 18 Sudeste 0 -- -- 78
2021-02-05 20:00:00 6.6 3 Sudeste 13 Sudeste 0 -- -- 81
2021-02-05 19:00:00 8.6 7 Sudeste 21 Sudeste 0 -- -- 72
2021-02-05 18:00:00 11.2 6 Sudeste 22 Este 0 -- -- 62
2021-02-05 17:00:00 14.3 18 Sur 34 Sur 0 -- -- 41
2021-02-05 16:00:00 15.6 15 Sur 34 Sur 0 -- -- 39
2021-02-05 15:00:00 16 20 Sur 40 Sur 0 -- -- 37
2021-02-05 14:00:00 16.4 17 Sur 48 Sur 0 -- -- 36
2021-02-05 13:00:00 15.5 27 Sur 48 Sur 0 -- -- 38
2021-02-05 12:00:00 14.1 14 Sudeste 31 Este 0 -- -- 53
2021-02-05 11:00:00 11.9 18 Sudeste 30 Sudeste 0 -- -- 58
2021-02-05 10:00:00 10.3 13 Sudeste 24 Sudeste 0 -- -- 66
2021-02-05 09:00:00 7.2 6 Sudeste 11 Sudeste 0 -- -- 73
2021-02-05 08:00:00 6.2 6 Sudeste 12 Sudeste 0 -- -- 76
2021-02-05 07:00:00 6.4 5 Sudeste 11 Sudeste 0 -- -- 78
2021-02-05 06:00:00 4.9 0 Calma 4 Nordeste 0 -- -- 84
2021-02-05 05:00:00 3.4 0 Calma 4 Nordeste 0 -- -- 88
2021-02-05 04:00:00 3.9 0 Calma 10 Sudoeste 0 -- -- 83
2021-02-05 03:00:00 2.7 2 Oeste 5 Oeste 0 -- -- 87
2021-02-05 02:00:00 2.9 0 Calma 4 Sudoeste 0 -- -- 86
2021-02-05 01:00:00 4.6 0 Calma 13 Sur 0 -- -- 81
2021-02-05 00:00:00 5 0 Calma 13 Oeste 0 -- -- 79
2021-02-04 23:00:00 5.6 4 Sudoeste 10 Sur 0 -- -- 77
2021-02-04 22:00:00 6 6 Sudoeste 9 Sudoeste 0 -- -- 74
2021-02-04 21:00:00 8.6 6 Sudoeste 15 Sudoeste 0 -- -- 64
2021-02-04 20:00:00 10.8 11 Sur 17 Sudoeste 0 -- -- 54
2021-02-04 19:00:00 11.7 11 Sur 19 Sur 0 -- -- 48
2021-02-04 18:00:00 13.4 15 Sudoeste 30 Sur 0 -- -- 42
2021-02-04 17:00:00 14.9 13 Sudoeste 32 Oeste 0 -- -- 37
2021-02-04 16:00:00 17 16 Sudoeste 35 Sudoeste 0 -- -- 31
2021-02-04 15:00:00 17.3 18 Sur 34 Sur 0 -- -- 33
2021-02-04 14:00:00 16.2 17 Sudeste 26 Sudeste 0 -- -- 41
2021-02-04 13:00:00 14.9 10 Este 21 Este 0 -- -- 55
2021-02-04 12:00:00 11.6 9 Sudeste 17 Sudeste 0 -- -- 69
2021-02-04 11:00:00 8.8 3 Sudeste 5 Sudeste 0 -- -- 84
2021-02-04 10:00:00 5.6 0 Calma 3 Nordeste 0 -- -- 93
2021-02-04 09:00:00 4.6 0 Calma 4 Oeste 0 -- -- 93
2021-02-04 08:00:00 4.6 0 Calma 9 Sudoeste 0 -- -- 92
2021-02-04 07:00:00 4.7 0 Calma 4 Sudoeste 0 -- -- 92
2021-02-04 06:00:00 5.3 2 Sudoeste 4 Norte 0 -- -- 90
2021-02-04 05:00:00 6.1 2 Nordeste 4 Nordeste 0 -- -- 90
2021-02-04 04:00:00 5.9 0 Calma 6 Sudeste 0 -- -- 89
2021-02-04 03:00:00 6.3 3 Sur 10 Sur 0 -- -- 87
2021-02-04 02:00:00 4.7 3 Sudoeste 11 Sudoeste 0 -- -- 90
2021-02-04 01:00:00 7 8 Sur 17 Sudoeste 0 -- -- 82
2021-02-04 00:00:00 7.4 8 Sudoeste 14 Sur 0 -- -- 81
2021-02-03 23:00:00 7.5 9 Sur 13 Sur 0 -- -- 81
2021-02-03 22:00:00 8.1 11 Sur 22 Sudoeste 0 -- -- 78
2021-02-03 21:00:00 6.9 10 Sur 24 Sudoeste 0 -- -- 82
2021-02-03 20:00:00 8.9 13 Sudoeste 28 Sudoeste 0 -- -- 76
2021-02-03 19:00:00 9.1 10 Sudoeste 26 Sudoeste 0 -- -- 75
2021-02-03 18:00:00 9.8 9 Sudoeste 30 Oeste 0 -- -- 72
2021-02-03 17:00:00 10.5 19 Oeste 34 Oeste 0 -- -- 70
2021-02-03 16:00:00 11.2 18 Sudoeste 38 Oeste 0 -- -- 69
2021-02-03 15:00:00 13 20 Sudoeste 37 Sudoeste 0 -- -- 62
2021-02-03 14:00:00 12 19 Sudoeste 35 Oeste 0 -- -- 65
2021-02-03 13:00:00 11.5 21 Oeste 38 Sudoeste 0 -- -- 68
2021-02-03 12:00:00 10.6 19 Sudoeste 32 Oeste 0 -- -- 70
2021-02-03 11:00:00 9 16 Sudoeste 32 Oeste 0 -- -- 76
2021-02-03 10:00:00 8.2 10 Oeste 20 Oeste 0 -- -- 78
2021-02-03 09:00:00 6.2 7 Sudoeste 20 Sudoeste 0 -- -- 86
2021-02-03 08:00:00 4.9 2 Norte 10 Sudeste 0 -- -- 88
2021-02-03 07:00:00 4.6 0 Calma 12 Oeste 0 -- -- 88
2021-02-03 06:00:00 4.1 2 Oeste 9 Sur 0 -- -- 89
2021-02-03 05:00:00 4 0 Calma 16 Sudoeste 0 -- -- 86
2021-02-03 04:00:00 4.5 0 Calma 10 Sudoeste 0 -- -- 85
2021-02-03 03:00:00 5.2 3 Oeste 13 Sudoeste 0 -- -- 85
2021-02-03 02:00:00 4.3 5 Oeste 15 Oeste 0 -- -- 87
2021-02-03 01:00:00 5.3 8 Sudoeste 27 Oeste 0 -- -- 84
2021-02-03 00:00:00 6.5 15 Oeste 38 Sudoeste 0 -- -- 81
2021-02-02 23:00:00 7.2 10 Sudoeste 30 Sudoeste 0 -- -- 78
2021-02-02 22:00:00 7.4 7 Sur 32 Sudoeste 0 -- -- 77
2021-02-02 21:00:00 6.7 7 Sudoeste 34 Sudoeste 0 -- -- 80
2021-02-02 20:00:00 7.3 18 Sudoeste 42 Oeste 0 -- -- 78
2021-02-02 19:00:00 7.6 10 Sudoeste 34 Sudoeste 0 -- -- 77
2021-02-02 18:00:00 9.5 12 Sudoeste 48 Oeste 0 -- -- 73
2021-02-02 17:00:00 11.2 25 Oeste 46 Oeste 0 -- -- 68
2021-02-02 16:00:00 12 20 Oeste 42 Sudoeste 0 -- -- 65
2021-02-02 15:00:00 11.5 27 Oeste 42 Oeste 0 -- -- 67
2021-02-02 14:00:00 11.3 28 Oeste 42 Oeste 0 -- -- 68
2021-02-02 13:00:00 10.5 28 Oeste 49 Oeste 0 -- -- 72
2021-02-02 12:00:00 9.6 26 Oeste 43 Oeste 0 -- -- 75
2021-02-02 11:00:00 9.1 23 Oeste 37 Oeste 0 -- -- 78
2021-02-02 10:00:00 7.8 10 Oeste 25 Sudoeste 0 -- -- 85
2021-02-02 09:00:00 7 10 Oeste 18 Oeste 0 -- -- 87
2021-02-02 08:00:00 6.5 8 Oeste 18 Oeste 0 -- -- 90
2021-02-02 07:00:00 6.5 7 Oeste 27 Oeste 0 -- -- 92
2021-02-02 06:00:00 6.3 17 Oeste 30 Oeste 0 -- -- 92
2021-02-02 05:00:00 6.1 17 Oeste 31 Oeste 0 -- -- 92
2021-02-02 04:00:00 4.9 19 Oeste 30 Sudoeste 0 -- -- 94
2021-02-02 03:00:00 5 20 Oeste 36 Oeste 0 -- -- 92
2021-02-02 02:00:00 5.5 23 Oeste 38 Oeste 0 -- -- 88
2021-02-02 01:00:00 5.7 14 Oeste 33 Oeste 0 -- -- 87
2021-02-02 00:00:00 6.1 12 Oeste 30 Oeste 0 -- -- 86
2021-02-01 23:00:00 6.4 20 Oeste 34 Oeste 0 -- -- 87
2021-02-01 22:00:00 7 22 Oeste 34 Oeste 0 -- -- 81
2021-02-01 21:00:00 7.8 17 Oeste 35 Oeste 0 -- -- 75
2021-02-01 20:00:00 8.1 22 Oeste 34 Oeste 0 -- -- 70
2021-02-01 19:00:00 9.2 15 Oeste 37 Oeste 0 -- -- 65
2021-02-01 18:00:00 10.5 26 Oeste 41 Oeste 0 -- -- 62
2021-02-01 17:00:00 11.5 20 Oeste 45 Oeste 0 -- -- 66
2021-02-01 16:00:00 11.6 28 Oeste 53 Oeste 0 -- -- 68
2021-02-01 15:00:00 10.7 28 Oeste 50 Oeste 0 -- -- 70
2021-02-01 14:00:00 10.1 29 Oeste 52 Sudoeste 0 -- -- 69
2021-02-01 13:00:00 10.3 30 Oeste 50 Oeste 0 -- -- 67
2021-02-01 12:00:00 9.7 26 Oeste 50 Oeste 0 -- -- 67
2021-02-01 11:00:00 9 28 Oeste 50 Oeste 0 -- -- 68
2021-02-01 10:00:00 7.7 25 Oeste 44 Oeste 0 -- -- 70
2021-02-01 09:00:00 5.6 21 Oeste 44 Oeste 0 -- -- 77
2021-02-01 08:00:00 4.9 26 Oeste 39 Oeste 0 -- -- 80
2021-02-01 07:00:00 5.1 20 Oeste 39 Oeste 0 -- -- 79
2021-02-01 06:00:00 5.9 23 Oeste 40 Oeste 0 -- -- 76
2021-02-01 05:00:00 6.5 24 Oeste 51 Oeste 0 -- -- 74
2021-02-01 04:00:00 6.9 25 Oeste 52 Oeste 0 -- -- 74
2021-02-01 03:00:00 7.3 29 Oeste 52 Oeste 0 -- -- 73
2021-02-01 02:00:00 7.5 30 Oeste 50 Oeste 0 -- -- 75
2021-02-01 01:00:00 7.3 27 Oeste 49 Oeste 0 -- -- 79
2021-02-01 00:00:00 8.1 28 Oeste 49 Oeste 0 -- -- 79
2021-01-31 23:00:00 8.2 24 Oeste 48 Oeste 0 -- -- 79
2021-01-31 22:00:00 8.8 25 Oeste 55 Oeste 0 -- -- 79
2021-01-31 21:00:00 8.8 38 Oeste 59 Oeste 0 -- -- 81
2021-01-31 20:00:00 8.3 29 Oeste 50 Oeste 0 -- -- 82
2021-01-31 19:00:00 8.3 27 Oeste 53 Oeste 0 -- -- 84
2021-01-31 18:00:00 8.2 31 Oeste 50 Oeste 0 -- -- 87
2021-01-31 17:00:00 8 30 Oeste 60 Oeste 0 -- -- 85
2021-01-31 16:00:00 8.5 32 Oeste 65 Oeste 0 -- -- 82
2021-01-31 15:00:00 8.8 37 Oeste 65 Oeste 0 -- -- 76
2021-01-31 14:00:00 7.7 32 Oeste 55 Oeste 0 -- -- 79
2021-01-31 13:00:00 7.6 28 Oeste 52 Oeste 0 -- -- 76
2021-01-31 12:00:00 7.4 30 Oeste 51 Oeste 0 -- -- 73
2021-01-31 11:00:00 5.1 25 Oeste 55 Oeste 0.2 -- -- 80
2021-01-31 10:00:00 5.4 34 Oeste 56 Oeste 0 -- -- 74
2021-01-31 09:00:00 3.7 19 Oeste 39 Oeste 0 -- -- 80
2021-01-31 08:00:00 3.7 20 Oeste 45 Oeste 0 -- -- 82
2021-01-31 07:00:00 3.9 25 Oeste 45 Oeste 0 -- -- 82
2021-01-31 06:00:00 4.2 29 Oeste 53 Oeste 0 -- -- 79
2021-01-31 05:00:00 4.1 28 Oeste 51 Oeste 0 -- -- 79
2021-01-31 04:00:00 4.1 28 Oeste 43 Oeste 0 -- -- 79
2021-01-31 03:00:00 3.9 19 Oeste 34 Oeste 0 -- -- 82
2021-01-31 02:00:00 3.6 17 Oeste 38 Oeste 0 -- -- 82
2021-01-31 01:00:00 3.5 19 Oeste 47 Oeste 0.2 -- -- 84
2021-01-31 00:00:00 3.3 28 Oeste 48 Oeste 0.2 -- -- 88